Time;durP1;ratioP1;P1;durP2;ratioP2;P2;SDS_P1;SDS_P2;PMS_P1;PMS_P2;Temp;Humidity;BMP_temperature;BMP_pressure;BME280_temperature;BME280_humidity;BME280_pressure;Samples;Min_cycle;Max_cycle;Signal;HPM_P1;HPM_P2
2023/06/15 00:00:23;;;;;;;6.07;2.03;;;21.00;68.20;;;;;;5024420;28;20100;-33
2023/06/15 00:02:49;;;;;;;2.95;2.00;;;20.90;68.30;;;;;;5025021;28;20108;-33
2023/06/15 00:05:16;;;;;;;2.55;1.77;;;20.80;68.40;;;;;;5023923;28;20472;-41
2023/06/15 00:07:51;;;;;;;2.90;1.73;;;20.80;68.50;;;;;;5024177;28;20030;-33
2023/06/15 00:10:17;;;;;;;2.28;1.90;;;20.80;68.80;;;;;;5024011;28;20033;-34
2023/06/15 00:12:43;;;;;;;2.92;2.17;;;20.70;69.10;;;;;;5023717;28;20493;-34
2023/06/15 00:15:09;;;;;;;2.63;2.28;;;20.70;69.20;;;;;;5024058;28;20029;-34
2023/06/15 00:17:41;;;;;;;3.33;2.00;;;20.60;69.50;;;;;;5023160;28;20025;-33
2023/06/15 00:20:08;;;;;;;2.40;2.20;;;20.50;69.90;;;;;;5024330;28;20083;-33
2023/06/15 00:22:38;;;;;;;3.10;2.10;;;20.50;70.00;;;;;;5020178;28;20025;-33
2023/06/15 00:25:04;;;;;;;3.08;2.17;;;20.50;70.50;;;;;;5023171;28;20041;-33
2023/06/15 00:27:29;;;;;;;4.38;2.55;;;20.50;70.80;;;;;;5023254;28;20435;-32
2023/06/15 00:29:55;;;;;;;2.92;2.10;;;20.40;71.10;;;;;;5024223;28;20033;-34
2023/06/15 00:32:20;;;;;;;4.20;2.45;;;20.40;71.40;;;;;;5022848;28;20080;-33
2023/06/15 00:34:46;;;;;;;3.33;2.20;;;20.30;71.80;;;;;;5023798;28;20033;-33
2023/06/15 00:37:11;;;;;;;4.28;2.22;;;20.30;71.90;;;;;;5024552;28;20903;-34
2023/06/15 00:39:46;;;;;;;4.00;2.33;;;20.30;72.10;;;;;;5026844;28;20743;-33
2023/06/15 00:42:12;;;;;;;2.45;2.20;;;20.30;72.50;;;;;;5028198;28;20030;-32
2023/06/15 00:44:37;;;;;;;2.42;2.10;;;20.20;72.60;;;;;;5028690;28;20049;-34
2023/06/15 00:47:03;;;;;;;3.20;2.53;;;20.20;72.80;;;;;;5027380;28;20022;-33
2023/06/15 00:49:31;;;;;;;4.43;2.50;;;20.10;73.20;;;;;;5027629;28;20033;-33
2023/06/15 00:51:57;;;;;;;4.82;2.58;;;20.10;73.50;;;;;;5028054;28;20107;-32
2023/06/15 00:54:24;;;;;;;2.42;2.22;;;20.00;73.80;;;;;;5026526;28;20104;-33
2023/06/15 00:56:53;;;;;;;6.10;2.50;;;20.00;74.00;;;;;;5027367;28;20030;-33
2023/06/15 00:59:19;;;;;;;3.42;2.33;;;20.00;74.20;;;;;;5027260;28;20033;-33
2023/06/15 01:01:47;;;;;;;5.32;2.35;;;20.00;74.20;;;;;;5026651;28;20022;-34
2023/06/15 01:04:13;;;;;;;2.67;2.20;;;19.90;74.40;;;;;;5027474;28;20434;-34
2023/06/15 01:06:42;;;;;;;2.50;2.30;;;19.90;74.60;;;;;;5026665;28;20037;-33
2023/06/15 01:09:11;;;;;;;4.13;2.35;;;19.90;74.80;;;;;;5023338;28;20025;-33
2023/06/15 01:11:40;;;;;;;3.53;2.40;;;19.90;74.90;;;;;;5026951;28;20040;-32
2023/06/15 01:14:07;;;;;;;3.08;2.45;;;19.80;75.10;;;;;;5025796;28;20013;-33
2023/06/15 01:16:37;;;;;;;2.80;2.38;;;19.90;75.40;;;;;;5026969;28;20076;-34
2023/06/15 01:19:09;;;;;;;3.45;2.50;;;19.90;75.40;;;;;;5027191;28;20026;-34
2023/06/15 01:21:36;;;;;;;2.65;2.30;;;19.80;76.10;;;;;;5026231;28;20048;-33
2023/06/15 01:24:24;;;;;;;5.65;2.38;;;19.80;75.70;;;;;;5026805;28;20029;-33
2023/06/15 01:26:52;;;;;;;4.10;2.40;;;19.80;76.00;;;;;;5027538;28;20038;-34
2023/06/15 01:29:20;;;;;;;3.67;2.60;;;19.80;76.10;;;;;;5025824;28;20025;-33
2023/06/15 01:31:47;;;;;;;2.97;2.17;;;19.80;76.30;;;;;;5027042;28;20128;-34
2023/06/15 01:34:15;;;;;;;3.05;2.50;;;19.70;76.40;;;;;;5026600;28;20710;-34
2023/06/15 01:36:41;;;;;;;2.95;2.65;;;19.70;76.70;;;;;;5025996;28;20485;-34
2023/06/15 01:39:07;;;;;;;2.55;2.30;;;19.70;76.90;;;;;;5026488;28;20041;-33
2023/06/15 01:41:35;;;;;;;4.00;2.45;;;19.70;77.00;;;;;;5024979;28;20174;-34
2023/06/15 01:44:02;;;;;;;3.88;2.53;;;19.70;77.10;;;;;;5024118;28;20029;-34
2023/06/15 01:46:29;;;;;;;5.32;2.33;;;19.60;77.30;;;;;;5024532;28;20029;-34
2023/06/15 01:48:58;;;;;;;2.88;2.67;;;19.60;77.50;;;;;;5024098;28;20020;-34
2023/06/15 01:51:26;;;;;;;2.88;2.53;;;19.60;77.80;;;;;;5023916;28;20746;-34
2023/06/15 01:53:51;;;;;;;4.55;3.00;;;19.60;77.90;;;;;;5024395;28;20138;-32
2023/06/15 01:56:20;;;;;;;2.97;2.67;;;19.60;78.00;;;;;;5025524;28;20143;-33
2023/06/15 01:58:45;;;;;;;4.25;3.17;;;19.50;78.20;;;;;;5025861;28;20528;-34
2023/06/15 02:01:11;;;;;;;3.63;2.53;;;19.50;78.30;;;;;;5026113;28;20033;-34
2023/06/15 02:03:37;;;;;;;3.15;2.80;;;19.50;78.50;;;;;;5025671;28;20021;-34
2023/06/15 02:06:02;;;;;;;2.67;2.10;;;19.50;78.60;;;;;;5025612;28;20460;-33
2023/06/15 02:08:28;;;;;;;2.40;2.20;;;19.40;78.70;;;;;;5025860;28;20030;-34
2023/06/15 02:10:53;;;;;;;3.00;2.60;;;19.40;78.90;;;;;;5025127;28;20694;-34
2023/06/15 02:13:19;;;;;;;4.20;2.42;;;19.30;79.10;;;;;;5026103;28;20036;-33
2023/06/15 02:15:44;;;;;;;3.50;2.63;;;19.30;79.30;;;;;;5025825;28;20032;-34
2023/06/15 02:18:14;;;;;;;2.80;2.35;;;19.30;79.40;;;;;;5024932;28;20041;-34
2023/06/15 02:20:43;;;;;;;3.35;2.53;;;19.20;79.60;;;;;;5025460;28;20433;-34
2023/06/15 02:23:10;;;;;;;3.10;2.38;;;19.20;79.80;;;;;;5026078;28;20030;-33
2023/06/15 02:25:38;;;;;;;4.07;2.88;;;19.20;80.00;;;;;;5024504;28;20879;-33
2023/06/15 02:28:04;;;;;;;3.38;2.75;;;19.20;80.20;;;;;;5026309;28;20029;-34
2023/06/15 02:30:30;;;;;;;4.22;2.50;;;19.20;80.30;;;;;;5025662;28;20021;-34
2023/06/15 02:33:00;;;;;;;2.78;2.58;;;19.10;80.40;;;;;;5025955;28;20093;-33
2023/06/15 02:35:27;;;;;;;3.88;2.50;;;19.10;80.60;;;;;;5026045;28;20376;-34
2023/06/15 02:37:53;;;;;;;2.85;2.50;;;19.10;80.70;;;;;;5026530;28;20149;-34
2023/06/15 02:40:18;;;;;;;3.10;2.70;;;19.10;80.80;;;;;;5025181;28;20049;-34
2023/06/15 02:42:44;;;;;;;3.10;2.80;;;19.10;80.90;;;;;;5026379;28;20018;-34
2023/06/15 02:45:10;;;;;;;3.40;2.70;;;19.10;81.10;;;;;;5025372;28;20045;-34
2023/06/15 02:47:37;;;;;;;3.40;2.58;;;19.00;81.20;;;;;;5025066;28;20336;-34
2023/06/15 02:50:06;;;;;;;3.92;2.28;;;19.10;81.40;;;;;;5026012;28;20055;-34
2023/06/15 02:52:32;;;;;;;3.25;2.40;;;19.10;81.50;;;;;;5024492;28;20034;-34
2023/06/15 02:54:58;;;;;;;2.80;2.42;;;19.00;81.50;;;;;;5026038;28;20033;-33
2023/06/15 02:57:24;;;;;;;4.47;2.75;;;19.00;81.60;;;;;;5025464;28;20025;-33
2023/06/15 02:59:50;;;;;;;4.32;2.72;;;19.00;81.80;;;;;;5025395;28;20038;-34
2023/06/15 03:02:16;;;;;;;4.40;2.85;;;19.00;81.90;;;;;;5025304;28;20053;-34
2023/06/15 03:04:44;;;;;;;3.17;2.50;;;18.90;82.00;;;;;;5026008;28;20484;-35
2023/06/15 03:07:20;;;;;;;3.67;2.70;;;18.90;82.10;;;;;;5024972;28;20022;-34
2023/06/15 03:09:47;;;;;;;3.58;2.90;;;18.90;82.30;;;;;;5025727;28;20783;-33
2023/06/15 03:12:16;;;;;;;4.15;2.63;;;18.90;82.30;;;;;;5025552;28;20033;-33
2023/06/15 03:14:49;;;;;;;3.40;3.00;;;18.90;82.50;;;;;;5024327;28;20472;-33
2023/06/15 03:17:25;;;;;;;2.92;2.63;;;18.90;82.60;;;;;;5025924;28;20021;-34
2023/06/15 03:19:50;;;;;;;6.13;3.22;;;18.90;82.80;;;;;;5025567;28;20038;-33
2023/06/15 03:22:19;;;;;;;3.85;2.92;;;18.90;82.70;;;;;;5025346;28;20048;-34
2023/06/15 03:24:45;;;;;;;4.15;2.67;;;18.90;82.80;;;;;;5025833;28;20485;-34
2023/06/15 03:27:10;;;;;;;3.45;2.67;;;18.90;82.80;;;;;;5025921;28;20040;-34
2023/06/15 03:29:39;;;;;;;3.08;2.78;;;18.90;82.90;;;;;;5025039;28;20022;-34
2023/06/15 03:32:08;;;;;;;3.58;2.75;;;18.90;82.90;;;;;;5025532;28;20037;-33
2023/06/15 03:34:37;;;;;;;3.35;2.83;;;18.90;82.90;;;;;;5024818;28;20021;-34
2023/06/15 03:37:04;;;;;;;7.10;2.95;;;18.90;83.10;;;;;;5024876;28;20033;-32
2023/06/15 03:39:30;;;;;;;3.05;2.65;;;18.80;83.10;;;;;;5024911;28;20066;-32
2023/06/15 03:41:55;;;;;;;3.20;2.55;;;18.80;83.10;;;;;;5024479;28;20120;-33
2023/06/15 03:44:21;;;;;;;2.83;2.58;;;18.80;83.20;;;;;;5024715;28;20036;-33
2023/06/15 03:46:47;;;;;;;5.22;2.90;;;18.70;83.30;;;;;;5024953;28;20059;-33
2023/06/15 03:49:13;;;;;;;3.13;2.80;;;18.70;83.40;;;;;;5023747;28;20018;-36
2023/06/15 03:51:39;;;;;;;3.63;2.80;;;18.80;83.40;;;;;;5024368;28;20040;-34
2023/06/15 03:54:05;;;;;;;5.05;2.65;;;18.80;83.30;;;;;;5025214;28;20075;-33
2023/06/15 03:56:30;;;;;;;5.05;2.70;;;18.80;83.40;;;;;;5024234;28;20025;-34
2023/06/15 03:59:05;;;;;;;3.08;2.65;;;18.70;83.40;;;;;;5025297;28;20353;-34
2023/06/15 04:01:44;;;;;;;3.65;2.47;;;18.70;83.40;;;;;;5025434;28;20043;-33
2023/06/15 04:04:12;;;;;;;2.70;2.22;;;18.70;83.40;;;;;;5023485;28;20033;-32
2023/06/15 04:06:37;;;;;;;3.00;2.67;;;18.70;83.30;;;;;;5024621;28;20095;-33
2023/06/15 04:09:06;;;;;;;6.45;2.50;;;18.70;83.50;;;;;;5024477;28;20021;-33
2023/06/15 04:11:32;;;;;;;3.75;2.75;;;18.70;83.60;;;;;;5023619;28;20068;-33
2023/06/15 04:13:57;;;;;;;3.95;2.90;;;18.70;83.70;;;;;;5028360;28;20488;-33
2023/06/15 04:16:23;;;;;;;3.75;2.90;;;18.80;83.80;;;;;;5028493;28;20429;-34
2023/06/15 04:18:52;;;;;;;3.80;2.85;;;18.80;83.80;;;;;;5027529;28;20508;-33
2023/06/15 04:21:23;;;;;;;3.35;2.60;;;18.80;83.90;;;;;;5028005;28;20084;-33
2023/06/15 04:23:49;;;;;;;3.50;2.80;;;18.80;83.80;;;;;;5027458;28;20049;-34
2023/06/15 04:26:14;;;;;;;3.65;2.55;;;18.80;83.70;;;;;;5027709;28;20124;-34
2023/06/15 04:28:49;;;;;;;3.92;3.10;;;18.90;83.80;;;;;;5027941;28;20021;-33
2023/06/15 04:31:21;;;;;;;3.03;2.63;;;18.80;83.80;;;;;;5028085;28;20021;-33
2023/06/15 04:33:46;;;;;;;3.83;2.67;;;18.90;84.50;;;;;;5029064;28;20047;-33
2023/06/15 04:36:21;;;;;;;4.07;2.60;;;18.80;83.80;;;;;;5028361;28;20038;-33
2023/06/15 04:38:48;;;;;;;2.70;2.40;;;18.80;83.90;;;;;;5028537;28;20013;-33
2023/06/15 04:41:14;;;;;;;3.47;2.95;;;18.90;84.00;;;;;;5028246;28;20031;-34
2023/06/15 04:43:40;;;;;;;3.00;2.67;;;18.90;83.90;;;;;;5028918;28;20017;-34
2023/06/15 04:46:06;;;;;;;3.65;2.72;;;18.90;83.80;;;;;;5027152;28;20694;-34
2023/06/15 04:48:32;;;;;;;5.72;2.80;;;18.90;83.80;;;;;;5027602;28;20025;-44
2023/06/15 04:50:59;;;;;;;3.67;2.65;;;18.90;83.80;;;;;;5027519;28;20830;-35
2023/06/15 04:53:25;;;;;;;5.53;2.72;;;19.00;83.80;;;;;;5026771;28;20046;-34
2023/06/15 04:55:51;;;;;;;3.85;2.70;;;19.00;83.80;;;;;;5027972;28;20037;-33
2023/06/15 04:58:18;;;;;;;3.10;2.80;;;19.00;83.80;;;;;;5027272;28;20021;-34
2023/06/15 05:00:43;;;;;;;3.40;2.80;;;19.00;83.80;;;;;;5027270;28;20021;-33
2023/06/15 05:03:10;;;;;;;4.13;3.00;;;19.00;83.80;;;;;;5027399;28;20030;-33
2023/06/15 05:05:36;;;;;;;3.53;2.92;;;19.00;83.80;;;;;;5027167;28;20032;-33
2023/06/15 05:08:02;;;;;;;5.07;3.00;;;19.00;83.80;;;;;;5026338;28;20621;-33
2023/06/15 05:10:28;;;;;;;4.03;3.08;;;19.00;83.80;;;;;;5026756;28;20013;-34
2023/06/15 05:12:54;;;;;;;4.40;2.65;;;19.00;83.80;;;;;;5027701;28;20056;-33
2023/06/15 05:15:22;;;;;;;3.45;2.60;;;19.00;83.80;;;;;;5026032;28;20033;-34
2023/06/15 05:17:47;;;;;;;3.38;2.80;;;19.10;83.80;;;;;;5027190;28;20071;-33
2023/06/15 05:20:14;;;;;;;4.85;2.88;;;19.10;83.70;;;;;;5026426;28;20811;-33
2023/06/15 05:22:40;;;;;;;3.17;2.88;;;19.10;83.70;;;;;;5026821;28;20025;-33
2023/06/15 05:25:11;;;;;;;4.97;2.72;;;19.20;83.70;;;;;;5025874;28;20060;-33
2023/06/15 05:27:37;;;;;;;2.97;2.60;;;19.20;83.60;;;;;;5024738;28;20852;-33
2023/06/15 05:30:08;;;;;;;3.17;2.83;;;19.20;83.50;;;;;;5028752;28;20276;-33
2023/06/15 05:32:37;;;;;;;3.83;2.40;;;19.20;83.50;;;;;;5027311;28;20029;-33
2023/06/15 05:35:08;;;;;;;3.03;2.63;;;19.30;83.50;;;;;;5024340;28;20057;-34
2023/06/15 05:37:34;;;;;;;3.67;2.78;;;19.30;83.60;;;;;;5025368;28;20034;-33
2023/06/15 05:40:00;;;;;;;3.40;2.70;;;19.30;83.50;;;;;;5026455;28;20112;-33
2023/06/15 05:42:26;;;;;;;3.05;2.70;;;19.40;83.60;;;;;;5024665;28;20115;-34
2023/06/15 05:44:52;;;;;;;4.00;2.92;;;19.40;83.50;;;;;;5026237;28;20064;-33
2023/06/15 05:47:17;;;;;;;2.85;2.53;;;19.50;83.40;;;;;;5024958;28;20029;-34
2023/06/15 05:49:43;;;;;;;4.45;2.70;;;19.50;83.30;;;;;;5025317;28;20037;-34
2023/06/15 05:52:14;;;;;;;2.75;2.45;;;19.60;83.30;;;;;;5025501;28;20033;-34
2023/06/15 05:54:41;;;;;;;2.75;2.55;;;19.60;83.10;;;;;;5025599;28;20032;-34
2023/06/15 05:57:07;;;;;;;3.40;2.25;;;19.70;83.10;;;;;;5025326;28;20041;-34
2023/06/15 05:59:32;;;;;;;2.85;2.47;;;19.70;83.10;;;;;;5025499;28;20033;-35
2023/06/15 06:01:58;;;;;;;3.47;2.30;;;19.80;83.00;;;;;;5025772;28;20379;-33
2023/06/15 06:04:23;;;;;;;3.42;2.63;;;19.80;82.90;;;;;;5024607;28;20041;-33
2023/06/15 06:06:52;;;;;;;3.20;2.28;;;19.90;82.90;;;;;;5026134;28;20731;-34
2023/06/15 06:09:18;;;;;;;3.35;2.55;;;19.90;82.90;;;;;;5024001;28;20071;-33
2023/06/15 06:11:47;;;;;;;3.33;2.45;;;19.90;82.90;;;;;;5026429;28;20040;-34
2023/06/15 06:14:13;;;;;;;2.90;2.60;;;20.00;82.90;;;;;;5024332;28;20048;-32
2023/06/15 06:16:39;;;;;;;3.25;2.50;;;20.00;82.70;;;;;;5025225;28;20485;-33
2023/06/15 06:19:04;;;;;;;5.20;3.03;;;20.10;82.60;;;;;;5025205;28;20075;-32
2023/06/15 06:21:31;;;;;;;5.15;2.80;;;20.10;82.40;;;;;;5025252;28;20025;-33
2023/06/15 06:23:59;;;;;;;3.03;2.60;;;20.10;82.30;;;;;;5024555;28;20033;-32
2023/06/15 06:26:25;;;;;;;2.90;2.53;;;20.20;82.30;;;;;;5024474;28;20520;-32
2023/06/15 06:28:54;;;;;;;5.32;2.53;;;20.20;82.20;;;;;;5025223;28;20120;-32
2023/06/15 06:31:26;;;;;;;2.95;2.65;;;20.30;82.10;;;;;;5024612;28;20075;-33
2023/06/15 06:33:51;;;;;;;3.97;2.50;;;20.40;82.00;;;;;;5025471;28;20064;-33
2023/06/15 06:36:17;;;;;;;3.75;2.40;;;20.40;82.00;;;;;;5024029;28;20116;-34
2023/06/15 06:38:42;;;;;;;2.65;2.10;;;20.40;81.80;;;;;;5025201;28;20028;-34
2023/06/15 06:41:20;;;;;;;2.92;2.50;;;20.50;81.70;;;;;;5025278;28;20075;-35
2023/06/15 06:43:45;;;;;;;4.75;2.30;;;20.60;81.60;;;;;;5025818;28;20029;-33
2023/06/15 06:46:13;;;;;;;3.42;2.35;;;20.60;81.60;;;;;;5025224;28;20040;-34
2023/06/15 06:48:40;;;;;;;4.35;2.55;;;20.70;81.50;;;;;;5037951;28;20104;-34
2023/06/15 06:51:05;;;;;;;4.07;2.80;;;20.70;82.10;;;;;;5025056;28;20626;-33
2023/06/15 06:53:31;;;;;;;2.60;2.40;;;20.80;81.50;;;;;;5024268;28;20124;-33
2023/06/15 06:55:59;;;;;;;2.75;2.40;;;20.90;81.40;;;;;;5025362;28;20722;-34
2023/06/15 06:58:24;;;;;;;3.05;2.75;;;20.90;81.30;;;;;;5024158;28;20032;-34
2023/06/15 07:00:50;;;;;;;5.78;2.33;;;20.90;81.30;;;;;;5026225;28;20025;-35
2023/06/15 07:03:16;;;;;;;3.10;2.50;;;21.00;81.20;;;;;;5025830;28;20029;-35
2023/06/15 07:05:41;;;;;;;4.82;2.30;;;21.00;81.00;;;;;;5025213;28;20045;-33
2023/06/15 07:08:07;;;;;;;2.88;2.35;;;21.10;80.80;;;;;;5025676;28;20018;-34
2023/06/15 07:10:32;;;;;;;2.70;2.25;;;21.20;80.70;;;;;;5024741;28;20037;-32
2023/06/15 07:12:58;;;;;;;2.38;2.13;;;21.20;80.50;;;;;;5024805;28;20013;-34
2023/06/15 07:15:26;;;;;;;2.67;2.05;;;21.30;80.30;;;;;;5024641;28;20029;-33
2023/06/15 07:17:52;;;;;;;3.47;2.08;;;21.30;80.10;;;;;;5025476;28;20746;-33
2023/06/15 07:20:20;;;;;;;2.55;2.28;;;21.30;80.00;;;;;;5023636;28;20073;-34
2023/06/15 07:22:46;;;;;;;2.35;2.15;;;21.30;79.80;;;;;;5025454;28;20032;-34
2023/06/15 07:25:14;;;;;;;2.90;2.13;;;21.40;79.70;;;;;;5025158;28;20384;-33
2023/06/15 07:27:40;;;;;;;2.50;2.22;;;21.50;79.60;;;;;;5024520;28;20887;-35
2023/06/15 07:30:06;;;;;;;4.65;2.58;;;21.50;79.40;;;;;;5025283;28;20029;-34
2023/06/15 07:32:31;;;;;;;4.60;2.50;;;21.50;79.20;;;;;;5024931;28;20017;-34
2023/06/15 07:34:57;;;;;;;2.80;2.03;;;21.60;79.30;;;;;;5024605;28;20040;-32
2023/06/15 07:37:22;;;;;;;2.72;2.30;;;21.60;79.10;;;;;;5024324;28;20109;-35
2023/06/15 07:39:51;;;;;;;2.63;2.20;;;21.60;79.00;;;;;;5024667;28;20103;-34
2023/06/15 07:42:16;;;;;;;2.95;2.15;;;21.60;78.80;;;;;;5019763;28;20079;-34
2023/06/15 07:44:42;;;;;;;2.33;1.90;;;21.70;78.50;;;;;;5024838;28;20033;-34
2023/06/15 07:47:11;;;;;;;2.50;2.30;;;21.70;78.20;;;;;;5023836;28;20498;-33
2023/06/15 07:49:36;;;;;;;2.40;2.20;;;21.80;78.00;;;;;;5023663;28;20382;-34
2023/06/15 07:52:02;;;;;;;3.13;2.10;;;21.90;77.80;;;;;;5022428;28;20080;-33
2023/06/15 07:54:27;;;;;;;2.53;2.30;;;21.90;77.60;;;;;;5023878;28;20103;-33
2023/06/15 07:56:53;;;;;;;2.85;2.40;;;22.00;77.20;;;;;;5024040;28;20044;-33
2023/06/15 07:59:25;;;;;;;4.28;2.80;;;22.10;77.10;;;;;;5023755;28;20030;-33
2023/06/15 08:01:53;;;;;;;2.85;2.50;;;22.20;77.00;;;;;;5023920;28;20388;-33
2023/06/15 08:04:19;;;;;;;2.80;2.60;;;22.20;76.90;;;;;;5024070;28;20041;-33
2023/06/15 08:06:45;;;;;;;2.72;2.40;;;22.20;76.60;;;;;;5024547;28;20045;-34
2023/06/15 08:09:13;;;;;;;2.33;2.13;;;22.30;76.50;;;;;;5023353;28;20014;-32
2023/06/15 08:11:39;;;;;;;3.00;2.10;;;22.30;76.30;;;;;;5023496;28;20171;-35
2023/06/15 08:14:05;;;;;;;3.50;2.20;;;22.40;76.10;;;;;;5024345;28;20021;-34
2023/06/15 08:16:33;;;;;;;3.22;2.20;;;22.40;75.90;;;;;;5022822;28;20025;-33
2023/06/15 08:18:59;;;;;;;2.80;2.15;;;22.40;76.30;;;;;;5024353;28;20492;-35
2023/06/15 08:21:24;;;;;;;2.97;2.10;;;22.50;75.60;;;;;;5024017;28;20064;-34
2023/06/15 08:23:50;;;;;;;2.30;2.10;;;22.60;75.60;;;;;;5023922;28;20034;-34
2023/06/15 08:26:19;;;;;;;2.40;1.98;;;22.70;75.60;;;;;;5024171;28;20033;-34
2023/06/15 08:28:44;;;;;;;3.63;2.22;;;22.70;75.40;;;;;;5024067;28;20520;-33
2023/06/15 08:31:10;;;;;;;2.00;1.90;;;22.80;75.20;;;;;;5022676;28;20036;-34
2023/06/15 08:33:38;;;;;;;2.15;1.95;;;22.90;75.10;;;;;;5021896;28;20063;-32
2023/06/15 08:36:04;;;;;;;1.98;1.85;;;23.00;74.90;;;;;;5024321;28;20061;-33
2023/06/15 08:38:30;;;;;;;2.25;2.05;;;23.00;74.60;;;;;;5022995;28;20025;-33
2023/06/15 08:40:55;;;;;;;4.95;2.28;;;23.00;74.50;;;;;;5023965;28;20366;-33
2023/06/15 08:43:25;;;;;;;3.40;2.10;;;23.10;74.50;;;;;;5023621;28;20044;-32
2023/06/15 08:45:58;;;;;;;2.35;2.15;;;23.10;74.30;;;;;;5023693;28;20044;-33
2023/06/15 08:48:29;;;;;;;4.03;2.08;;;23.20;73.90;;;;;;5023564;28;20017;-34
2023/06/15 08:51:05;;;;;;;3.60;2.10;;;23.30;73.60;;;;;;5024475;28;20037;-33
2023/06/15 08:53:33;;;;;;;2.25;1.88;;;23.40;73.40;;;;;;5023641;28;20099;-34
2023/06/15 08:55:58;;;;;;;3.55;2.10;;;23.50;73.20;;;;;;5024313;28;20029;-34
2023/06/15 08:58:24;;;;;;;3.40;2.22;;;23.60;73.00;;;;;;5022725;28;20079;-32
2023/06/15 09:00:53;;;;;;;2.33;2.13;;;23.70;72.70;;;;;;5027748;28;20028;-33
2023/06/15 09:03:23;;;;;;;1.92;1.83;;;23.80;72.30;;;;;;5026806;28;20485;-33
2023/06/15 09:05:48;;;;;;;1.95;1.85;;;24.00;72.00;;;;;;5027690;28;20059;-33
2023/06/15 09:08:14;;;;;;;2.25;1.90;;;24.20;71.70;;;;;;5027158;28;20469;-34
2023/06/15 09:10:41;;;;;;;3.97;2.05;;;24.30;71.40;;;;;;5027736;28;20492;-33
2023/06/15 09:13:16;;;;;;;2.28;2.08;;;24.40;70.80;;;;;;5026678;28;20029;-33
2023/06/15 09:15:50;;;;;;;2.40;2.17;;;24.50;70.60;;;;;;5027574;28;20055;-33
2023/06/15 09:18:18;;;;;;;3.92;2.40;;;24.60;70.40;;;;;;5027134;28;20578;-33
2023/06/15 09:20:44;;;;;;;2.38;2.17;;;24.60;70.20;;;;;;5026814;28;20021;-34
2023/06/15 09:23:11;;;;;;;3.17;2.30;;;24.70;70.20;;;;;;5027024;28;20084;-34
2023/06/15 09:25:37;;;;;;;2.45;2.25;;;24.70;70.10;;;;;;5027070;28;20029;-34
2023/06/15 09:28:05;;;;;;;3.78;2.40;;;24.60;70.10;;;;;;5026625;28;20033;-34
2023/06/15 09:30:39;;;;;;;2.55;2.22;;;24.70;70.20;;;;;;5026400;28;20086;-34
2023/06/15 09:33:18;;;;;;;2.85;2.10;;;24.70;70.20;;;;;;5026509;28;20404;-34
2023/06/15 09:36:00;;;;;;;2.25;2.05;;;24.70;70.00;;;;;;5026995;28;20424;-34
2023/06/15 09:38:48;;;;;;;3.42;2.38;;;24.70;70.00;;;;;;5025651;28;20749;-34
2023/06/15 09:41:16;;;;;;;2.10;1.90;;;24.80;69.80;;;;;;5025793;28;20111;-35
2023/06/15 09:43:42;;;;;;;2.67;2.00;;;24.80;69.70;;;;;;5027005;28;20017;-33
2023/06/15 09:46:12;;;;;;;2.63;2.10;;;24.80;69.60;;;;;;5026998;28;20037;-33
2023/06/15 09:48:43;;;;;;;3.47;2.22;;;24.80;69.60;;;;;;5025536;28;20025;-34
2023/06/15 09:51:10;;;;;;;4.60;2.45;;;24.80;69.60;;;;;;5026676;28;20033;-33
2023/06/15 09:53:37;;;;;;;2.35;2.15;;;24.80;69.70;;;;;;5026020;28;20064;-34
2023/06/15 09:56:03;;;;;;;2.47;2.10;;;24.80;69.70;;;;;;5025728;28;20021;-34
2023/06/15 09:58:29;;;;;;;4.20;2.20;;;24.80;69.50;;;;;;5026615;28;20054;-34
2023/06/15 10:00:57;;;;;;;3.45;2.22;;;24.90;69.40;;;;;;5026415;28;20025;-34
2023/06/15 10:03:24;;;;;;;2.95;2.22;;;24.90;68.80;;;;;;5025033;28;20040;-34
2023/06/15 10:05:54;;;;;;;2.50;1.90;;;24.90;68.40;;;;;;5026345;28;20052;-34
2023/06/15 10:08:26;;;;;;;3.53;2.10;;;24.90;68.10;;;;;;5024772;28;20052;-34
2023/06/15 10:10:55;;;;;;;3.15;1.98;;;24.80;68.10;;;;;;5026319;28;20025;-34
2023/06/15 10:13:26;;;;;;;2.45;1.92;;;24.90;68.00;;;;;;5024956;28;20504;-33
2023/06/15 10:15:55;;;;;;;4.50;2.13;;;24.90;67.60;;;;;;5025677;28;20030;-33
2023/06/15 10:18:22;;;;;;;3.03;2.30;;;25.00;67.90;;;;;;5025308;28;20469;-34
2023/06/15 10:20:52;;;;;;;3.03;2.20;;;25.00;66.60;;;;;;5025798;28;20025;-34
2023/06/15 10:23:31;;;;;;;2.15;1.95;;;25.10;66.50;;;;;;5024953;28;20071;-34
2023/06/15 10:25:58;;;;;;;3.33;2.10;;;25.20;66.40;;;;;;5026199;28;20043;-34
2023/06/15 10:28:42;;;;;;;1.77;1.63;;;25.30;66.50;;;;;;5025492;28;20590;-35
2023/06/15 10:31:16;;;;;;;1.83;1.73;;;25.30;66.40;;;;;;5024842;28;20083;-33
2023/06/15 10:34:07;;;;;;;3.45;1.85;;;25.40;67.10;;;;;;5025911;28;20484;-33
2023/06/15 10:36:47;;;;;;;2.38;2.05;;;25.40;66.30;;;;;;5025292;28;20029;-37
2023/06/15 10:39:35;;;;;;;1.88;1.77;;;25.30;66.10;;;;;;5026796;28;20116;-35
2023/06/15 10:42:07;;;;;;;3.25;2.40;;;25.20;66.10;;;;;;5035083;28;20021;-35
2023/06/15 10:44:33;;;;;;;3.78;2.10;;;25.20;65.70;;;;;;5025414;28;20071;-33
2023/06/15 10:47:13;;;;;;;2.10;1.90;;;25.20;65.90;;;;;;5025361;28;20808;-34
2023/06/15 10:49:52;;;;;;;2.25;2.00;;;25.20;66.10;;;;;;5024747;28;20061;-33
2023/06/15 10:52:18;;;;;;;2.72;2.03;;;25.30;66.10;;;;;;5023785;28;20538;-33
2023/06/15 10:54:44;;;;;;;2.40;2.10;;;25.40;65.40;;;;;;5025658;28;20116;-35
2023/06/15 10:57:16;;;;;;;3.53;2.10;;;25.60;65.40;;;;;;5025389;28;20354;-33
2023/06/15 10:59:58;;;;;;;2.28;2.08;;;25.70;65.10;;;;;;5025623;28;20118;-32
2023/06/15 11:02:32;;;;;;;2.45;2.22;;;25.80;64.80;;;;;;5025493;28;20026;-34
2023/06/15 11:05:03;;;;;;;2.50;1.88;;;25.90;64.50;;;;;;5024719;28;20497;-34
2023/06/15 11:07:37;;;;;;;2.85;2.15;;;25.90;64.40;;;;;;5024678;28;20037;-33
2023/06/15 11:10:16;;;;;;;4.30;2.30;;;26.00;64.40;;;;;;5025527;28;20374;-33
2023/06/15 11:12:46;;;;;;;3.92;2.03;;;26.10;64.30;;;;;;5024576;28;20124;-34
2023/06/15 11:15:16;;;;;;;2.63;2.42;;;26.10;63.60;;;;;;5023736;28;20132;-33
2023/06/15 11:18:00;;;;;;;3.20;1.85;;;26.10;63.10;;;;;;5024572;28;20033;-33
2023/06/15 11:20:47;;;;;;;1.95;1.80;;;26.10;62.60;;;;;;5023866;28;20087;-34
2023/06/15 11:23:16;;;;;;;2.13;1.92;;;26.00;62.60;;;;;;5018555;28;20138;-33
2023/06/15 11:25:46;;;;;;;3.13;2.10;;;25.90;62.40;;;;;;5035240;28;20122;-33
2023/06/15 11:28:15;;;;;;;5.15;2.30;;;25.90;61.70;;;;;;5029050;28;20112;-35
2023/06/15 11:30:42;;;;;;;3.47;2.10;;;25.80;61.90;;;;;;5022951;28;20071;-34
2023/06/15 11:33:12;;;;;;;4.25;2.17;;;25.70;61.70;;;;;;5023676;28;20040;-34
2023/06/15 11:35:37;;;;;;;2.35;2.15;;;25.60;61.70;;;;;;5017458;28;20057;-33
2023/06/15 11:38:07;;;;;;;2.95;1.75;;;25.60;61.50;;;;;;5022368;28;20084;-33
2023/06/15 11:40:36;;;;;;;3.03;2.45;;;25.60;61.50;;;;;;5023013;28;20104;-33
2023/06/15 11:43:04;;;;;;;4.15;2.65;;;25.60;61.20;;;;;;5012259;28;20025;-34
2023/06/15 11:45:30;;;;;;;2.65;2.33;;;25.50;59.30;;;;;;5023607;28;20519;-34
2023/06/15 11:47:58;;;;;;;2.83;2.00;;;25.50;60.50;;;;;;5016973;28;20022;-33
2023/06/15 11:50:24;;;;;;;2.47;2.00;;;25.60;60.30;;;;;;5016944;28;20033;-34
2023/06/15 11:52:50;;;;;;;2.78;2.00;;;25.70;60.10;;;;;;5024693;28;20048;-36
2023/06/15 11:55:16;;;;;;;2.33;2.13;;;25.90;60.20;;;;;;5018662;28;20061;-34
2023/06/15 11:57:43;;;;;;;2.67;2.00;;;26.10;60.40;;;;;;5035068;28;20033;-34
2023/06/15 12:00:10;;;;;;;3.67;2.03;;;26.30;60.10;;;;;;5024600;28;20029;-33
2023/06/15 12:02:37;;;;;;;2.25;2.00;;;26.40;60.60;;;;;;5021901;28;20036;-38
2023/06/15 12:05:03;;;;;;;3.05;2.22;;;26.40;59.90;;;;;;5021576;28;20062;-34
2023/06/15 12:07:34;;;;;;;3.42;2.30;;;26.40;59.20;;;;;;5021231;28;20038;-35
2023/06/15 12:10:00;;;;;;;2.88;1.70;;;26.20;59.10;;;;;;5019032;28;20515;-33
2023/06/15 12:12:34;;;;;;;2.30;2.00;;;26.20;59.40;;;;;;5025793;28;20074;-33
2023/06/15 12:15:04;;;;;;;1.83;1.73;;;26.10;59.40;;;;;;5023492;28;20041;-34
2023/06/15 12:17:32;;;;;;;2.25;1.88;;;26.00;59.50;;;;;;5024873;28;20029;-34
2023/06/15 12:19:58;;;;;;;1.95;1.52;;;25.90;59.70;;;;;;5020796;28;20356;-33
2023/06/15 12:22:35;;;;;;;1.92;1.70;;;25.90;60.00;;;;;;5026950;28;20078;-35
2023/06/15 12:25:01;;;;;;;2.40;1.70;;;26.10;59.90;;;;;;5022731;28;20045;-33
2023/06/15 12:27:29;;;;;;;2.90;1.75;;;26.20;59.70;;;;;;5021388;28;20033;-35
2023/06/15 12:30:21;;;;;;;1.75;1.65;;;26.30;59.80;;;;;;5015627;28;20037;-34
2023/06/15 12:32:49;;;;;;;2.28;1.70;;;26.40;60.00;;;;;;5020666;28;20037;-35
2023/06/15 12:35:32;;;;;;;2.65;1.85;;;26.60;59.60;;;;;;5028115;28;20473;-35
2023/06/15 12:37:57;;;;;;;;;;;26.60;59.00;;;;;;5028716;28;20029;-34
2023/06/15 12:40:23;;;;;;;2.88;1.98;;;26.60;59.20;;;;;;5021575;28;20286;-35
2023/06/15 12:43:00;;;;;;;2.00;1.80;;;26.60;59.00;;;;;;5027787;28;20076;-33
2023/06/15 12:45:26;;;;;;;2.22;1.67;;;26.50;58.70;;;;;;5023523;28;20030;-35
2023/06/15 12:47:52;;;;;;;2.42;2.15;;;26.50;58.90;;;;;;5027169;28;20060;-34
2023/06/15 12:50:17;;;;;;;3.17;1.90;;;26.40;58.20;;;;;;5033005;28;20465;-34
2023/06/15 12:52:43;;;;;;;1.90;1.80;;;26.40;58.00;;;;;;5027064;28;20049;-34